createdAt,value
2018-03-23T00:00:42.439Z,100223
2018-03-23T00:03:10.603Z,100225
2018-03-23T00:05:38.729Z,100219
2018-03-23T00:08:06.850Z,100217
2018-03-23T00:10:35.007Z,100221
2018-03-23T00:13:04.031Z,100219
2018-03-23T00:15:32.156Z,100213
2018-03-23T00:18:00.303Z,100224
2018-03-23T00:20:28.955Z,100218
2018-03-23T00:22:57.082Z,100231
2018-03-23T00:25:25.208Z,100223
2018-03-23T00:27:53.372Z,100223
2018-03-23T00:30:21.500Z,100224
2018-03-23T00:32:49.647Z,100230
2018-03-23T00:35:17.776Z,100225
2018-03-23T00:37:46.424Z,100231
2018-03-23T00:40:14.584Z,100225
2018-03-23T00:42:42.720Z,100223
2018-03-23T00:45:10.861Z,100228
2018-03-23T00:47:39.798Z,100227
2018-03-23T00:50:07.935Z,100234
2018-03-23T00:52:36.060Z,100222
2018-03-23T00:55:04.216Z,100215
2018-03-23T00:57:32.360Z,100208
2018-03-23T01:00:00.475Z,100201
2018-03-23T01:02:28.626Z,100206
2018-03-23T01:04:56.899Z,100221
2018-03-23T01:07:25.775Z,100218
2018-03-23T01:09:53.955Z,100219
2018-03-23T01:12:22.126Z,100220
2018-03-23T01:14:51.168Z,100218
2018-03-23T01:17:19.303Z,100218
2018-03-23T01:19:47.447Z,100210
2018-03-23T01:22:17.142Z,100217
2018-03-23T01:24:46.076Z,100213
2018-03-23T01:27:14.242Z,100217
2018-03-23T01:29:42.367Z,100218
2018-03-23T01:32:10.507Z,100224
2018-03-23T01:34:38.628Z,100216
2018-03-23T01:37:07.551Z,100212
2018-03-23T01:39:35.676Z,100213
2018-03-23T01:42:04.567Z,100226
2018-03-23T01:44:33.476Z,100214
2018-03-23T01:47:01.595Z,100225
2018-03-23T01:49:29.711Z,100223
2018-03-23T01:51:58.624Z,100228
2018-03-23T01:54:26.783Z,100227
2018-03-23T01:56:54.972Z,100221
2018-03-23T01:59:23.092Z,100217
2018-03-23T02:01:51.236Z,100217
2018-03-23T02:04:19.394Z,100212
2018-03-23T02:06:47.563Z,100207
2018-03-23T02:09:15.700Z,100212
2018-03-23T02:11:44.579Z,100213
2018-03-23T02:14:12.787Z,100207
2018-03-23T02:16:40.907Z,100210
2018-03-23T02:19:09.039Z,100208
2018-03-23T02:21:37.176Z,100206
2018-03-23T02:24:06.091Z,100198
2018-03-23T02:26:34.272Z,100195
2018-03-23T02:29:02.719Z,100202
2018-03-23T02:31:31.623Z,100199
2018-03-23T02:34:00.542Z,100201
2018-03-23T02:36:28.697Z,100187
2018-03-23T02:38:56.841Z,100188
2018-03-23T02:41:25.736Z,100180
2018-03-23T02:43:54.716Z,100187
2018-03-23T02:46:22.976Z,100189
2018-03-23T02:48:51.308Z,100184
2018-03-23T02:51:19.473Z,100182
2018-03-23T02:53:47.626Z,100186
2018-03-23T02:56:16.523Z,100183
2018-03-23T02:58:45.422Z,100184
2018-03-23T03:01:13.607Z,100186
2018-03-23T03:03:41.731Z,100179
2018-03-23T03:06:09.867Z,100188
2018-03-23T03:08:38.119Z,100188
2018-03-23T03:11:06.304Z,100183
2018-03-23T03:13:34.424Z,100176
2018-03-23T03:16:02.639Z,100182
2018-03-23T03:18:30.755Z,100177
2018-03-23T03:20:59.288Z,100182
2018-03-23T03:23:27.403Z,100193
2018-03-23T03:25:55.910Z,100183
2018-03-23T03:28:24.051Z,100192
2018-03-23T03:30:52.181Z,100201
2018-03-23T03:33:20.334Z,100200
2018-03-23T03:35:49.223Z,100199
2018-03-23T03:38:18.543Z,100196
2018-03-23T03:40:46.667Z,100202
2018-03-23T03:43:14.963Z,100207
2018-03-23T03:45:43.084Z,100201
2018-03-23T03:48:11.231Z,100213
2018-03-23T03:50:40.244Z,100205
2018-03-23T03:53:08.732Z,100203
2018-03-23T03:55:36.896Z,100206
2018-03-23T03:58:05.044Z,100216
2018-03-23T04:00:33.930Z,100205
2018-03-23T04:03:02.816Z,100215
2018-03-23T04:05:31.719Z,100211
2018-03-23T04:08:00.718Z,100211
2018-03-23T04:10:29.126Z,100200
2018-03-23T04:12:57.261Z,100198
2018-03-23T04:15:26.150Z,100207
2018-03-23T04:17:55.163Z,100208
2018-03-23T04:20:23.284Z,100200
2018-03-23T04:22:51.408Z,100191
2018-03-23T04:25:19.951Z,100198
2018-03-23T04:27:48.882Z,100195
2018-03-23T04:30:17.772Z,100188
2018-03-23T04:32:45.892Z,100192
2018-03-23T04:35:14.653Z,100192
2018-03-23T04:37:42.787Z,100189
2018-03-23T04:40:10.963Z,100190
2018-03-23T04:42:39.102Z,100184
2018-03-23T04:45:07.224Z,100178
2018-03-23T04:47:35.360Z,100184
2018-03-23T04:50:04.244Z,100183
2018-03-23T04:52:33.147Z,100177
2018-03-23T04:55:02.052Z,100186
2018-03-23T04:57:30.211Z,100175
2018-03-23T04:59:59.097Z,100166
2018-03-23T05:02:27.923Z,100177
2018-03-23T05:04:56.064Z,100161
2018-03-23T05:07:24.187Z,100167
2018-03-23T05:09:52.315Z,100171
2018-03-23T05:12:20.467Z,100162
2018-03-23T05:14:49.411Z,100167
2018-03-23T05:17:17.536Z,100173
2018-03-23T05:19:46.455Z,100165
2018-03-23T05:22:14.575Z,100164
2018-03-23T05:24:42.736Z,100168
2018-03-23T05:27:10.870Z,100171
2018-03-23T05:29:39.025Z,100167
2018-03-23T05:32:07.169Z,100161
2018-03-23T05:34:36.083Z,100167
2018-03-23T05:37:04.280Z,100166
2018-03-23T05:39:32.489Z,100168
2018-03-23T05:42:00.567Z,100175
2018-03-23T05:44:28.708Z,100167
2018-03-23T05:46:56.852Z,100173
2018-03-23T05:49:24.995Z,100169
2018-03-23T05:51:54.452Z,100175
2018-03-23T05:54:22.616Z,100169
2018-03-23T05:56:50.735Z,100166
2018-03-23T05:59:18.862Z,100173
2018-03-23T06:01:47.008Z,100179
2018-03-23T06:04:15.137Z,100164
2018-03-23T06:06:43.284Z,100171
2018-03-23T06:09:11.467Z,100173
2018-03-23T06:11:39.592Z,100169
2018-03-23T06:14:08.495Z,100172
2018-03-23T06:16:36.647Z,100178
2018-03-23T06:19:06.056Z,100170
2018-03-23T06:21:34.955Z,100181
2018-03-23T06:24:03.091Z,100172
2018-03-23T06:26:31.224Z,100162
2018-03-23T06:28:59.380Z,100184
2018-03-23T06:31:27.555Z,100183
2018-03-23T06:33:55.691Z,100179
2018-03-23T06:36:24.611Z,100176
2018-03-23T06:38:52.751Z,100180
2018-03-23T06:41:21.643Z,100179
2018-03-23T06:43:50.562Z,100186
2018-03-23T06:46:18.692Z,100185
2018-03-23T06:48:46.853Z,100182
2018-03-23T06:51:14.967Z,100187
2018-03-23T06:53:43.112Z,100186
2018-03-23T06:56:11.267Z,100196
2018-03-23T06:58:39.395Z,100196
2018-03-23T07:01:07.519Z,100195
2018-03-23T07:03:35.675Z,100189
2018-03-23T07:06:03.797Z,100188
2018-03-23T07:08:32.704Z,100192
2018-03-23T07:11:00.885Z,100190
2018-03-23T07:13:29.052Z,100198
2018-03-23T07:15:57.184Z,100193
2018-03-23T07:18:25.327Z,100198
2018-03-23T07:20:53.466Z,100196
2018-03-23T07:23:21.619Z,100189
2018-03-23T07:25:50.540Z,100205
2018-03-23T07:28:18.776Z,100200
2018-03-23T07:30:47.696Z,100201
2018-03-23T07:33:15.862Z,100203
2018-03-23T07:35:44.043Z,100198
2018-03-23T07:38:12.176Z,100195
2018-03-23T07:40:40.292Z,100205
2018-03-23T07:43:08.440Z,100204
2018-03-23T07:45:36.636Z,100208
2018-03-23T07:48:04.820Z,100205
2018-03-23T07:50:32.947Z,100199
2018-03-23T07:53:01.864Z,100198
2018-03-23T07:55:29.993Z,100203
2018-03-23T07:57:58.224Z,100200
2018-03-23T08:00:26.371Z,100193
2018-03-23T08:02:54.503Z,100197
2018-03-23T08:05:22.656Z,100200
2018-03-23T08:07:50.780Z,100194
2018-03-23T08:10:18.939Z,100192
2018-03-23T08:12:47.883Z,100195
2018-03-23T08:15:16.019Z,100202
2018-03-23T08:17:44.939Z,100197
2018-03-23T08:20:13.085Z,100193
2018-03-23T08:22:41.255Z,100197
2018-03-23T08:25:09.392Z,100199
2018-03-23T08:27:37.525Z,100199
2018-03-23T08:30:05.701Z,100198
2018-03-23T08:32:33.862Z,100194
2018-03-23T08:35:02.185Z,100193
2018-03-23T08:37:30.959Z,100194
2018-03-23T08:39:59.091Z,100187
2018-03-23T08:42:27.219Z,100196
2018-03-23T08:44:55.417Z,100194
2018-03-23T08:47:23.520Z,100195
2018-03-23T08:49:51.711Z,100205
2018-03-23T08:52:19.999Z,100192
2018-03-23T08:54:48.168Z,100193
2018-03-23T08:57:16.317Z,100197
2018-03-23T08:59:44.471Z,100198
2018-03-23T09:02:13.260Z,100196
2018-03-23T09:04:41.382Z,100196
2018-03-23T09:07:09.540Z,100202
2018-03-23T09:09:37.714Z,100196
2018-03-23T09:12:05.815Z,100203
2018-03-23T09:14:34.744Z,100198
2018-03-23T09:17:02.876Z,100207
2018-03-23T09:19:31.027Z,100207
2018-03-23T09:21:59.159Z,100201
2018-03-23T09:24:27.340Z,100209
2018-03-23T09:26:55.625Z,100205
2018-03-23T09:29:23.866Z,100203
2018-03-23T09:31:52.002Z,100208
2018-03-23T09:34:20.150Z,100204
2018-03-23T09:36:48.296Z,100208
2018-03-23T09:39:16.464Z,100197
2018-03-23T09:41:44.612Z,100194
2018-03-23T09:44:13.519Z,100193
2018-03-23T09:46:42.431Z,100188
2018-03-23T09:49:10.568Z,100188
2018-03-23T09:51:39.487Z,100190
2018-03-23T09:54:07.616Z,100182
2018-03-23T09:56:36.349Z,100185
2018-03-23T09:59:04.480Z,100193
2018-03-23T10:01:32.635Z,100192
2018-03-23T10:04:01.651Z,100181
2018-03-23T10:06:29.757Z,100189
2018-03-23T10:08:58.032Z,100189
2018-03-23T10:11:26.164Z,100192
2018-03-23T10:13:54.309Z,100187
2018-03-23T10:16:22.448Z,100188
2018-03-23T10:18:50.607Z,100193
2018-03-23T10:21:18.758Z,100191
2018-03-23T10:23:46.928Z,100187
2018-03-23T10:26:15.135Z,100185
2018-03-23T10:28:43.283Z,100181
2018-03-23T10:31:12.196Z,100180
2018-03-23T10:33:40.372Z,100176
2018-03-23T10:36:08.564Z,100176
2018-03-23T10:38:36.728Z,100180
2018-03-23T10:41:04.855Z,100176
2018-03-23T10:43:33.030Z,100176
2018-03-23T10:46:01.947Z,100182
2018-03-23T10:48:30.080Z,100185
2018-03-23T10:50:58.247Z,100185
2018-03-23T10:53:26.396Z,100180
2018-03-23T10:55:55.385Z,100175
2018-03-23T10:58:23.603Z,100182
2018-03-23T11:00:58.116Z,100182
2018-03-23T11:03:26.374Z,100175
2018-03-23T11:05:54.463Z,100178
2018-03-23T11:08:22.692Z,100170
2018-03-23T11:10:50.910Z,100169
2018-03-23T11:13:19.053Z,100177
2018-03-23T11:15:47.215Z,100169
2018-03-23T11:18:15.343Z,100186
2018-03-23T11:20:44.268Z,100180
2018-03-23T11:23:12.426Z,100185
2018-03-23T11:25:41.241Z,100182
2018-03-23T11:28:09.371Z,100179
2018-03-23T11:30:38.276Z,100173
2018-03-23T11:33:06.433Z,100172
2018-03-23T11:35:35.340Z,100181
2018-03-23T11:38:03.620Z,100172
2018-03-23T11:40:31.771Z,100169
2018-03-23T11:43:00.689Z,100163
2018-03-23T11:45:28.836Z,100166
2018-03-23T11:47:57.031Z,100150
2018-03-23T11:50:25.159Z,100159
2018-03-23T11:52:54.127Z,100159
2018-03-23T11:55:22.264Z,100147
2018-03-23T11:57:50.430Z,100147
2018-03-23T12:00:18.584Z,100152
2018-03-23T12:02:47.491Z,100147
2018-03-23T12:05:15.657Z,100143
2018-03-23T12:07:43.798Z,100138
2018-03-23T12:10:11.935Z,100139
2018-03-23T12:12:40.196Z,100147
2018-03-23T12:15:08.408Z,100141
2018-03-23T12:17:36.573Z,100141
2018-03-23T12:20:04.715Z,100150
2018-03-23T12:22:32.928Z,100146
2018-03-23T12:25:01.063Z,100141
2018-03-23T12:27:29.225Z,100142
2018-03-23T12:29:57.384Z,100144
2018-03-23T12:32:26.283Z,100132
2018-03-23T12:34:54.463Z,100134
2018-03-23T12:37:23.359Z,100138
2018-03-23T12:39:51.492Z,100129
2018-03-23T12:42:20.463Z,100128
2018-03-23T12:44:48.622Z,100129
2018-03-23T12:47:17.698Z,100123
2018-03-23T12:49:45.840Z,100116
2018-03-23T12:52:14.790Z,100121
2018-03-23T12:54:42.967Z,100121
2018-03-23T12:57:11.100Z,100121
2018-03-23T12:59:39.228Z,100117
2018-03-23T13:02:07.377Z,100111
2018-03-23T13:04:35.529Z,100111
2018-03-23T13:07:03.695Z,100099
2018-03-23T13:09:31.875Z,100099
2018-03-23T13:12:00.007Z,100091
2018-03-23T13:14:28.151Z,100093
2018-03-23T13:16:56.839Z,100094
2018-03-23T13:19:25.791Z,100088
2018-03-23T13:21:53.938Z,100091
2018-03-23T13:24:22.258Z,100091
2018-03-23T13:26:50.684Z,100093
2018-03-23T13:29:18.845Z,100094
2018-03-23T13:31:47.754Z,100081
2018-03-23T13:34:15.928Z,100092
2018-03-23T13:36:44.076Z,100086
2018-03-23T13:39:12.972Z,100086
2018-03-23T13:41:41.886Z,100088
2018-03-23T13:44:10.091Z,100088
2018-03-23T13:46:38.344Z,100083
2018-03-23T13:49:06.501Z,100085
2018-03-23T13:51:34.678Z,100080
2018-03-23T13:54:02.851Z,100077
2018-03-23T13:56:31.101Z,100061
2018-03-23T13:59:05.748Z,100060
2018-03-23T14:01:39.641Z,100066
2018-03-23T14:04:07.807Z,100053
2018-03-23T14:06:36.710Z,100063
2018-03-23T14:09:05.803Z,100064
2018-03-23T14:11:35.459Z,100065
2018-03-23T14:14:03.676Z,100073
2018-03-23T14:16:33.000Z,100054
2018-03-23T14:19:01.133Z,100052
2018-03-23T14:21:29.342Z,100057
2018-03-23T14:23:57.724Z,100050
2018-03-23T14:26:26.032Z,100048
2018-03-23T14:28:54.269Z,100053
2018-03-23T14:31:22.372Z,100050
2018-03-23T14:33:50.526Z,100044
2018-03-23T14:36:18.655Z,100034
2018-03-23T14:38:47.586Z,100028
2018-03-23T14:41:15.747Z,100034
2018-03-23T14:43:43.900Z,100031
2018-03-23T14:46:12.948Z,100032
2018-03-23T14:48:41.247Z,100029
2018-03-23T14:51:09.727Z,100026
2018-03-23T14:53:39.831Z,100023
2018-03-23T14:56:20.987Z,100001
2018-03-23T15:01:46.516Z,100016
2018-03-23T15:04:14.711Z,100022
2018-03-23T15:06:42.888Z,100028
2018-03-23T15:09:11.127Z,100020
2018-03-23T15:11:39.328Z,100024
2018-03-23T15:14:18.943Z,100023
2018-03-23T15:16:47.256Z,100025
2018-03-23T15:19:15.407Z,100014
2018-03-23T15:21:43.685Z,100011
2018-03-23T15:24:11.875Z,100008
2018-03-23T15:26:40.110Z,100012
2018-03-23T15:29:08.281Z,100013
2018-03-23T15:31:36.851Z,100016
2018-03-23T15:34:05.292Z,100016
2018-03-23T15:36:33.456Z,100011
2018-03-23T15:39:01.698Z,100014
2018-03-23T15:41:29.836Z,100019
2018-03-23T15:43:58.947Z,100014
2018-03-23T15:46:27.083Z,100009
2018-03-23T15:48:55.312Z,100003
2018-03-23T15:51:23.451Z,100005
2018-03-23T15:53:51.647Z,100011
2018-03-23T15:56:19.870Z,100005
2018-03-23T15:58:48.027Z,100010
2018-03-23T16:01:16.221Z,100007
2018-03-23T16:03:44.362Z,100002
2018-03-23T16:06:12.514Z,100017
2018-03-23T16:08:40.656Z,100007
2018-03-23T16:11:09.792Z,100010
2018-03-23T16:13:37.977Z,100009
2018-03-23T16:16:06.148Z,100018
2018-03-23T16:18:34.781Z,100018
2018-03-23T16:21:02.911Z,100008
2018-03-23T16:23:31.156Z,100011
2018-03-23T16:25:59.352Z,100005
2018-03-23T16:28:27.518Z,100003
2018-03-23T16:30:55.671Z,100010
2018-03-23T16:33:23.921Z,100010
2018-03-23T16:35:52.963Z,100009
2018-03-23T16:38:21.171Z,100012
2018-03-23T16:40:49.326Z,100015
2018-03-23T16:43:17.479Z,100011
2018-03-23T16:45:45.672Z,100012
2018-03-23T16:48:14.048Z,100014
2018-03-23T16:50:42.293Z,100011
2018-03-23T16:53:10.480Z,100006
2018-03-23T16:55:38.839Z,100005
2018-03-23T16:58:06.967Z,100004
2018-03-23T17:00:35.196Z,100013
2018-03-23T17:03:03.321Z,100013
2018-03-23T17:05:32.231Z,100016
2018-03-23T17:12:48.355Z,100025
2018-03-23T17:15:16.536Z,100022
2018-03-23T17:17:44.721Z,100016
2018-03-23T17:20:12.963Z,100021
2018-03-23T17:22:41.907Z,100033
2018-03-23T17:25:10.185Z,100033
2018-03-23T17:27:38.463Z,100036
2018-03-23T17:30:06.588Z,100024
2018-03-23T17:32:34.732Z,100025
2018-03-23T17:35:02.888Z,100035
2018-03-23T17:37:31.031Z,100023
2018-03-23T17:39:59.195Z,100030
2018-03-23T17:42:27.359Z,100029
2018-03-23T17:44:55.506Z,100028
2018-03-23T17:47:24.619Z,100027
2018-03-23T17:49:52.771Z,100028
2018-03-23T17:52:21.696Z,100020
2018-03-23T17:54:49.864Z,100035
2018-03-23T17:57:18.001Z,100031
2018-03-23T17:59:47.364Z,100044
2018-03-23T18:02:15.522Z,100040
2018-03-23T18:04:43.706Z,100043
2018-03-23T18:07:11.872Z,100035
2018-03-23T18:09:40.012Z,100041
2018-03-23T18:12:08.168Z,100028
2018-03-23T18:14:37.072Z,100038
2018-03-23T18:17:06.460Z,100027
2018-03-23T18:19:34.592Z,100031
2018-03-23T18:22:02.744Z,100030
2018-03-23T18:24:31.387Z,100037
2018-03-23T18:27:00.308Z,100022
2018-03-23T18:29:28.445Z,100034
2018-03-23T18:31:56.661Z,100042
2018-03-23T18:34:24.796Z,100036
2018-03-23T18:36:52.919Z,100041
2018-03-23T18:39:21.140Z,100037
2018-03-23T18:41:50.057Z,100042
2018-03-23T18:44:18.178Z,100045
2018-03-23T18:46:46.332Z,100043
2018-03-23T18:49:14.492Z,100043
2018-03-23T18:51:43.100Z,100049
2018-03-23T18:54:11.335Z,100054
2018-03-23T18:56:39.458Z,100053
2018-03-23T18:59:07.632Z,100053
2018-03-23T19:01:35.752Z,100052
2018-03-23T19:04:03.928Z,100051
2018-03-23T19:06:32.126Z,100055
2018-03-23T19:09:00.285Z,100049
2018-03-23T19:11:29.468Z,100049
2018-03-23T19:13:57.631Z,100052
2018-03-23T19:16:25.760Z,100049
2018-03-23T19:18:53.992Z,100042
2018-03-23T19:21:22.121Z,100039
2018-03-23T19:23:51.608Z,100045
2018-03-23T19:26:19.755Z,100049
2018-03-23T19:28:48.117Z,100046
2018-03-23T19:31:17.000Z,100047
2018-03-23T19:33:45.135Z,100044
2018-03-23T19:36:13.412Z,100052
2018-03-23T19:38:41.537Z,100052
2018-03-23T19:41:09.664Z,100051
2018-03-23T19:43:38.593Z,100065
2018-03-23T19:46:06.719Z,100048
2018-03-23T19:48:34.859Z,100047
2018-03-23T19:51:03.004Z,100052
2018-03-23T19:53:31.168Z,100047
2018-03-23T20:02:59.937Z,100054
2018-03-23T20:05:28.792Z,100052
2018-03-23T20:07:56.944Z,100051
2018-03-23T20:10:25.883Z,100044
2018-03-23T20:12:54.032Z,100049
2018-03-23T20:15:22.208Z,100044
2018-03-23T20:17:56.011Z,100048
2018-03-23T20:20:29.646Z,100043
2018-03-23T20:22:57.889Z,100050
2018-03-23T20:25:26.581Z,100054
2018-03-23T20:28:00.347Z,100049
2018-03-23T20:30:29.244Z,100055
2018-03-23T20:32:58.328Z,100052
2018-03-23T20:35:27.244Z,100046
2018-03-23T20:37:55.394Z,100050
2018-03-23T20:40:24.304Z,100058
2018-03-23T20:42:52.460Z,100049
2018-03-23T20:45:21.397Z,100047
2018-03-23T20:47:49.554Z,100049
2018-03-23T20:50:18.405Z,100045
2018-03-23T20:52:47.340Z,100050
2018-03-23T20:55:15.492Z,100040
2018-03-23T20:57:43.657Z,100046
2018-03-23T21:00:11.787Z,100044
2018-03-23T21:02:39.950Z,100048
2018-03-23T21:05:08.212Z,100042
2018-03-23T21:07:36.340Z,100048
2018-03-23T21:10:05.253Z,100040
2018-03-23T21:12:34.008Z,100044
2018-03-23T21:15:02.961Z,100039
2018-03-23T21:17:31.096Z,100041
2018-03-23T21:19:59.238Z,100049
2018-03-23T21:22:27.383Z,100049
2018-03-23T21:24:56.055Z,100042
2018-03-23T21:27:24.181Z,100039
2018-03-23T21:29:53.089Z,100032
2018-03-23T21:32:21.269Z,100033
2018-03-23T21:34:49.412Z,100037
2018-03-23T21:37:18.312Z,100041
2018-03-23T21:39:47.195Z,100033
2018-03-23T21:42:16.098Z,100018
2018-03-23T21:44:44.290Z,100031
2018-03-23T21:47:12.451Z,100039
2018-03-23T21:49:40.615Z,100027
2018-03-23T21:52:08.824Z,100030
2018-03-23T21:54:36.987Z,100019
2018-03-23T21:57:05.115Z,100033
2018-03-23T21:59:33.994Z,100036
2018-03-23T22:02:02.138Z,100034
2018-03-23T22:04:30.282Z,100036
2018-03-23T22:06:58.424Z,100037
2018-03-23T22:09:27.311Z,100035
2018-03-23T22:11:56.335Z,100026
2018-03-23T22:14:24.492Z,100019
2018-03-23T22:16:52.689Z,100023
2018-03-23T22:19:20.835Z,100017
2018-03-23T22:21:49.755Z,100020
2018-03-23T22:24:17.915Z,100016
2018-03-23T22:26:46.764Z,100016
2018-03-23T22:29:14.913Z,100018
2018-03-23T22:31:43.052Z,100015
2018-03-23T22:34:11.196Z,100015
2018-03-23T22:36:40.088Z,100015
2018-03-23T22:39:09.016Z,100009
2018-03-23T22:41:37.972Z,100007
2018-03-23T22:44:06.875Z,100009
2018-03-23T22:46:35.004Z,100010
2018-03-23T22:49:03.147Z,100008
2018-03-23T22:51:31.268Z,100010
2018-03-23T22:54:00.169Z,100015
2018-03-23T22:56:29.794Z,100012
2018-03-23T22:58:57.999Z,100014
2018-03-23T23:01:26.231Z,100012
2018-03-23T23:03:54.352Z,100004
2018-03-23T23:06:22.487Z,100007
2018-03-23T23:08:50.666Z,100004
2018-03-23T23:11:18.847Z,100003
2018-03-23T23:13:46.966Z,100002
2018-03-23T23:16:15.899Z,99997
2018-03-23T23:18:44.071Z,99994
2018-03-23T23:21:12.260Z,100000
2018-03-23T23:23:40.444Z,99998
2018-03-23T23:26:08.573Z,100002
2018-03-23T23:28:36.699Z,99996
2018-03-23T23:31:04.920Z,100000
2018-03-23T23:33:33.107Z,99991
2018-03-23T23:36:01.253Z,99999
2018-03-23T23:38:30.145Z,99996
2018-03-23T23:40:59.026Z,99999
2018-03-23T23:43:27.943Z,99993
2018-03-23T23:45:56.052Z,99998
2018-03-23T23:48:24.212Z,99991
2018-03-23T23:50:52.351Z,100001
2018-03-23T23:53:20.531Z,99997
2018-03-23T23:55:48.719Z,99987
2018-03-23T23:58:17.595Z,99992
